createdAt,value
2023-01-10T00:04:04.036Z,87.69
2023-01-10T00:09:05.728Z,88.01
2023-01-10T00:14:07.389Z,88.87
2023-01-10T00:19:10.469Z,89.07
2023-01-10T00:24:22.202Z,89.06
2023-01-10T00:29:28.945Z,88.92
2023-01-10T00:34:32.696Z,88.72
2023-01-10T00:39:34.373Z,88.82
2023-01-10T00:44:36.036Z,87.97
2023-01-10T00:49:37.699Z,87.86
2023-01-10T00:54:39.388Z,87.53
2023-01-10T00:59:41.063Z,87.61
2023-01-10T01:04:42.754Z,87.91
2023-01-10T01:10:03.124Z,87.75
2023-01-10T01:15:05.477Z,88.05
2023-01-10T01:20:08.185Z,87.79
2023-01-10T01:25:10.082Z,88.45
2023-01-10T01:30:12.578Z,88.41
2023-01-10T01:35:15.719Z,88.21
2023-01-10T01:40:20.807Z,88.63
2023-01-10T01:45:22.418Z,88.72
2023-01-10T01:50:34.518Z,88.61
2023-01-10T01:55:38.567Z,88.20
2023-01-10T02:00:40.502Z,87.71
2023-01-10T02:05:43.839Z,87.72
2023-01-10T02:10:54.877Z,87.72
2023-01-10T02:15:56.558Z,88.15
2023-01-10T02:21:14.023Z,88.90
2023-01-10T02:26:33.994Z,89.40
2023-01-10T02:31:51.824Z,90.12
2023-01-10T02:37:05.728Z,91.14
2023-01-10T02:42:10.625Z,91.41
2023-01-10T02:47:13.970Z,91.92
2023-01-10T02:52:35.958Z,91.83
2023-01-10T02:57:58.514Z,92.30
2023-01-10T03:03:18.780Z,92.23
2023-01-10T03:08:34.958Z,92.06
2023-01-10T03:13:39.492Z,92.21
2023-01-10T03:18:48.107Z,92.08
2023-01-10T03:23:54.000Z,91.78
2023-01-10T03:29:02.017Z,92.45
2023-01-10T03:34:03.760Z,93.14
2023-01-10T03:39:32.828Z,93.09
2023-01-10T03:44:51.807Z,93.45
2023-01-10T03:50:06.487Z,93.17
2023-01-10T03:55:12.650Z,93.09
2023-01-10T04:00:16.492Z,93.39
2023-01-10T04:05:18.208Z,93.20
2023-01-10T04:10:21.112Z,93.02
2023-01-10T04:15:22.714Z,93.36
2023-01-10T04:20:27.864Z,93.53
2023-01-10T04:25:29.603Z,93.22
2023-01-10T04:30:31.264Z,93.58
2023-01-10T04:35:32.926Z,93.21
2023-01-10T04:40:34.608Z,93.55
2023-01-10T04:45:36.446Z,93.42
2023-01-10T04:50:38.418Z,93.29
2023-01-10T04:55:40.108Z,93.50
2023-01-10T05:00:42.060Z,93.64
2023-01-10T05:05:43.828Z,94.72
2023-01-10T05:10:45.516Z,94.50
2023-01-10T05:15:47.139Z,94.86
2023-01-10T05:20:48.824Z,95.14
2023-01-10T05:25:50.537Z,95.41
2023-01-10T05:30:52.479Z,95.63
2023-01-10T05:35:54.126Z,95.87
2023-01-10T05:40:59.020Z,96.02
2023-01-10T05:46:00.929Z,96.14
2023-01-10T05:51:03.719Z,96.22
2023-01-10T05:56:07.642Z,96.44
2023-01-10T06:01:10.127Z,96.28
2023-01-10T06:06:12.299Z,96.36
2023-01-10T06:11:13.989Z,95.97
2023-01-10T06:16:15.662Z,95.28
2023-01-10T06:21:17.577Z,95.36
2023-01-10T06:26:19.391Z,95.50
2023-01-10T06:31:22.748Z,95.24
2023-01-10T06:36:24.554Z,95.30
2023-01-10T06:41:26.379Z,95.36
2023-01-10T06:46:28.084Z,95.28
2023-01-10T06:51:29.823Z,95.29
2023-01-10T06:56:31.610Z,95.62
2023-01-10T07:01:33.462Z,95.73
2023-01-10T07:06:37.467Z,95.95
2023-01-10T07:11:39.198Z,95.62
2023-01-10T07:16:40.872Z,95.33
2023-01-10T07:21:42.623Z,95.26
2023-01-10T07:26:44.289Z,95.12
2023-01-10T07:31:45.968Z,94.93
2023-01-10T07:36:47.787Z,94.85
2023-01-10T07:41:50.272Z,94.94
2023-01-10T07:46:51.871Z,94.79
2023-01-10T07:51:53.535Z,94.80
2023-01-10T07:56:55.297Z,94.08
2023-01-10T08:01:56.953Z,94.04
2023-01-10T08:06:58.804Z,93.92
2023-01-10T08:12:00.493Z,93.22
2023-01-10T08:17:02.138Z,92.81
2023-01-10T08:22:03.978Z,92.39
2023-01-10T08:27:05.846Z,92.16
2023-01-10T08:32:07.922Z,92.22
2023-01-10T08:37:13.885Z,91.89
2023-01-10T08:42:16.910Z,91.58
2023-01-10T08:47:18.602Z,91.06
2023-01-10T08:52:20.843Z,90.59
2023-01-10T08:57:22.534Z,89.97
2023-01-10T09:02:24.338Z,89.72
2023-01-10T09:07:26.132Z,88.90
2023-01-10T09:12:47.179Z,88.88
2023-01-10T09:17:50.018Z,89.16
2023-01-10T09:22:51.915Z,88.85
2023-01-10T09:27:58.950Z,88.98
2023-01-10T09:33:01.091Z,88.80
2023-01-10T09:38:03.811Z,88.87
2023-01-10T09:43:37.900Z,88.83
2023-01-10T09:49:15.239Z,88.39
2023-01-10T09:54:31.608Z,88.31
2023-01-10T09:59:38.562Z,88.44
2023-01-10T10:04:41.449Z,88.22
2023-01-10T10:09:43.291Z,86.95
2023-01-10T10:15:08.184Z,87.01
2023-01-10T10:20:35.507Z,87.35
2023-01-10T10:26:05.758Z,88.16
2023-01-10T10:31:38.838Z,87.62
2023-01-10T10:36:50.724Z,87.65
2023-01-10T10:41:55.922Z,88.26
2023-01-10T10:46:59.581Z,88.21
2023-01-10T10:52:03.792Z,88.05
2023-01-10T10:57:05.534Z,86.84
2023-01-10T11:02:23.177Z,86.02
2023-01-10T11:07:28.272Z,84.98
2023-01-10T11:12:35.239Z,84.56
2023-01-10T11:17:41.072Z,83.68
2023-01-10T11:22:55.354Z,82.91
2023-01-10T11:28:00.973Z,82.86
2023-01-10T11:33:07.733Z,82.13
2023-01-10T11:38:22.058Z,82.58
2023-01-10T11:43:36.442Z,82.07
2023-01-10T11:49:05.730Z,81.41
2023-01-10T11:54:17.441Z,78.98
2023-01-10T11:59:19.392Z,80.19
2023-01-10T12:04:23.059Z,79.71
2023-01-10T12:09:42.974Z,78.10
2023-01-10T12:14:46.084Z,77.49
2023-01-10T12:19:48.493Z,77.31
2023-01-10T12:24:52.357Z,77.26
2023-01-10T12:30:11.708Z,76.59
2023-01-10T12:35:20.781Z,75.99
2023-01-10T12:40:47.604Z,75.94
2023-01-10T12:45:57.499Z,74.93
2023-01-10T12:51:05.167Z,74.98
2023-01-10T12:56:13.227Z,74.53
2023-01-10T13:01:18.044Z,74.25
2023-01-10T13:06:35.082Z,74.80
2023-01-10T13:11:50.633Z,73.54
2023-01-10T13:17:04.712Z,72.37
2023-01-10T13:22:21.869Z,73.29
2023-01-10T13:27:32.661Z,72.90
2023-01-10T13:32:36.415Z,73.45
2023-01-10T13:37:41.442Z,73.99
2023-01-10T13:43:18.661Z,74.28
2023-01-10T13:48:26.889Z,74.28
2023-01-10T13:53:28.674Z,74.65
2023-01-10T13:58:59.953Z,74.76
2023-01-10T14:04:02.059Z,74.95
2023-01-10T14:09:12.493Z,75.18
2023-01-10T14:14:22.120Z,75.37
2023-01-10T14:19:29.000Z,75.37
2023-01-10T14:24:41.540Z,75.76
2023-01-10T14:29:51.302Z,75.11
2023-01-10T14:34:53.054Z,75.05
2023-01-10T14:39:56.157Z,74.70
2023-01-10T14:45:19.587Z,74.76
2023-01-10T14:50:32.657Z,73.55
2023-01-10T14:55:34.687Z,73.60
2023-01-10T15:00:36.738Z,73.73
2023-01-10T15:05:46.061Z,73.63
2023-01-10T15:10:51.917Z,73.10
2023-01-10T15:15:54.445Z,73.17
2023-01-10T15:20:57.365Z,72.58
2023-01-10T15:26:03.349Z,72.41
2023-01-10T15:31:06.658Z,72.00
2023-01-10T15:36:14.002Z,71.89
2023-01-10T15:41:19.615Z,71.67
2023-01-10T15:46:24.397Z,71.88
2023-01-10T15:51:34.605Z,72.04
2023-01-10T15:56:46.690Z,72.07
2023-01-10T16:02:17.659Z,72.18
2023-01-10T16:07:43.628Z,72.38
2023-01-10T16:13:04.041Z,72.71
2023-01-10T16:18:05.998Z,72.42
2023-01-10T16:23:15.933Z,72.36
2023-01-10T16:28:20.243Z,72.46
2023-01-10T16:33:27.512Z,72.26
2023-01-10T16:38:29.600Z,71.51
2023-01-10T16:43:31.317Z,71.27
2023-01-10T16:48:33.487Z,71.37
2023-01-10T16:53:35.217Z,70.92
2023-01-10T16:58:36.901Z,70.77
2023-01-10T17:03:39.145Z,70.60
2023-01-10T17:08:41.383Z,70.76
2023-01-10T17:13:45.278Z,70.49
2023-01-10T17:18:47.645Z,70.21
2023-01-10T17:23:50.527Z,70.09
2023-01-10T17:28:52.142Z,69.93
2023-01-10T17:33:53.838Z,70.40
2023-01-10T17:38:59.609Z,70.72
2023-01-10T17:44:01.648Z,71.24
2023-01-10T17:49:03.560Z,71.48
2023-01-10T17:54:05.430Z,71.44
2023-01-10T17:59:07.461Z,71.22
2023-01-10T18:04:09.264Z,71.29
2023-01-10T18:09:10.995Z,71.12
2023-01-10T18:14:31.247Z,70.97
2023-01-10T18:19:33.522Z,71.55
2023-01-10T18:24:35.231Z,71.28
2023-01-10T18:29:36.855Z,71.14
2023-01-10T18:34:38.547Z,71.87
2023-01-10T18:39:40.635Z,71.68
2023-01-10T18:44:42.319Z,71.79
2023-01-10T18:49:44.103Z,72.00
2023-01-10T18:54:47.470Z,72.14
2023-01-10T18:59:49.383Z,72.30
2023-01-10T19:04:51.502Z,72.61
2023-01-10T19:09:53.223Z,72.44
2023-01-10T19:14:56.891Z,72.23
2023-01-10T19:19:58.802Z,72.41
2023-01-10T19:25:00.476Z,72.96
2023-01-10T19:30:02.096Z,73.18
2023-01-10T19:35:07.836Z,73.49
2023-01-10T19:40:10.152Z,73.71
2023-01-10T19:45:11.998Z,73.94
2023-01-10T19:50:13.771Z,74.23
2023-01-10T19:55:16.027Z,74.03
2023-01-10T20:00:18.242Z,74.09
2023-01-10T20:05:20.163Z,74.02
2023-01-10T20:10:22.068Z,74.34
2023-01-10T20:15:23.998Z,74.59
2023-01-10T20:20:25.734Z,74.41
2023-01-10T20:25:27.929Z,74.25
2023-01-10T20:30:29.552Z,74.59
2023-01-10T20:35:31.437Z,74.58
2023-01-10T20:40:33.329Z,74.78
2023-01-10T20:45:35.218Z,74.86
2023-01-10T20:50:37.077Z,74.75
2023-01-10T20:55:38.811Z,75.00
2023-01-10T21:00:40.482Z,74.80
2023-01-10T21:05:48.839Z,75.02
2023-01-10T21:10:51.499Z,75.20
2023-01-10T21:15:57.761Z,74.74
2023-01-10T21:21:00.077Z,74.53
2023-01-10T21:26:07.096Z,74.85
2023-01-10T21:31:10.499Z,74.57
2023-01-10T21:36:13.485Z,74.28
2023-01-10T21:41:36.526Z,74.66
2023-01-10T21:46:38.489Z,74.46
2023-01-10T21:51:40.280Z,74.36
2023-01-10T21:56:42.080Z,74.29
2023-01-10T22:01:44.820Z,74.31
2023-01-10T22:06:46.580Z,74.19
2023-01-10T22:11:48.304Z,74.42
2023-01-10T22:16:49.964Z,74.03
2023-01-10T22:21:51.687Z,73.75
2023-01-10T22:26:54.847Z,74.06
2023-01-10T22:31:56.838Z,73.72
2023-01-10T22:36:59.160Z,73.50
2023-01-10T22:42:00.875Z,73.21
2023-01-10T22:47:02.686Z,73.04
2023-01-10T22:52:08.296Z,73.26
2023-01-10T22:57:09.979Z,72.88
2023-01-10T23:02:11.785Z,72.89
2023-01-10T23:07:13.809Z,72.25
2023-01-10T23:12:15.515Z,72.41
2023-01-10T23:17:17.192Z,71.93
2023-01-10T23:22:19.306Z,71.71
2023-01-10T23:27:21.224Z,71.52
2023-01-10T23:32:25.772Z,71.52
2023-01-10T23:37:27.877Z,70.83
2023-01-10T23:42:29.520Z,70.96
2023-01-10T23:47:31.808Z,71.05
2023-01-10T23:52:33.547Z,70.86
2023-01-10T23:57:35.265Z,70.94
